Time,TemperatureF,DewpointF,PressureIn,WindDirection,WindDirectionDegrees,WindSpeedMPH,WindSpeedGustMPH,Humidity,HourlyPrecipIn,Conditions,Clouds,dailyrainin,SolarRadiationWatts/m^2,SoftwareType,DateUTC
2013-06-05 00:03:00,72.0,68.0,30.33,ESE,114,6.0,11.0,87,0.00,,,0.01,0.000000,,2013-06-05 04:03:00,
2013-06-05 00:13:00,72.0,68.0,30.33,ESE,114,6.0,11.0,87,0.00,,,0.01,0.000000,,2013-06-05 04:13:00,
2013-06-05 00:33:00,70.0,66.0,30.33,East,94,6.0,11.0,87,0.00,,,0.01,0.000000,,2013-06-05 04:33:00,
2013-06-05 00:42:00,70.0,66.0,30.33,East,94,6.0,11.0,87,0.00,,,0.01,0.000000,,2013-06-05 04:42:00,
2013-06-05 00:53:00,70.0,66.0,30.33,East,94,6.0,11.0,87,0.00,,,0.01,0.000000,,2013-06-05 04:53:00,
2013-06-05 01:02:00,70.0,66.0,30.33,East,94,6.0,11.0,87,0.00,,,0.01,0.000000,,2013-06-05 05:02:00,
2013-06-05 01:12:00,70.0,66.0,30.33,East,94,6.0,11.0,87,0.00,,,0.01,0.000000,,2013-06-05 05:12:00,
2013-06-05 01:32:00,70.0,67.0,30.33,ESE,112,2.0,9.0,90,0.00,,,0.01,0.000000,,2013-06-05 05:32:00,
2013-06-05 01:42:00,70.0,67.0,30.33,ESE,112,2.0,9.0,90,0.00,,,0.01,0.000000,,2013-06-05 05:42:00,
2013-06-05 01:53:00,70.0,67.0,30.33,ESE,112,2.0,9.0,90,0.00,,,0.01,0.000000,,2013-06-05 05:53:00,
2013-06-05 02:02:00,70.0,67.0,30.33,ESE,112,2.0,9.0,90,0.00,,,0.01,0.000000,,2013-06-05 06:02:00,
2013-06-05 02:12:00,70.0,67.0,30.33,ESE,112,2.0,9.0,90,0.00,,,0.01,0.000000,,2013-06-05 06:12:00,
2013-06-05 02:32:00,67.0,64.0,30.32,NE,44,3.0,7.0,91,0.00,,,0.01,0.000000,,2013-06-05 06:32:00,
2013-06-05 02:42:00,67.0,64.0,30.32,NE,44,3.0,7.0,91,0.00,,,0.01,0.000000,,2013-06-05 06:42:00,
2013-06-05 02:52:00,67.0,64.0,30.32,NE,44,3.0,7.0,91,0.00,,,0.01,0.000000,,2013-06-05 06:52:00,
2013-06-05 03:02:00,67.0,64.0,30.32,NE,44,3.0,7.0,91,0.00,,,0.01,0.000000,,2013-06-05 07:02:00,
2013-06-05 03:12:00,67.0,64.0,30.32,NE,44,3.0,7.0,91,0.00,,,0.01,0.000000,,2013-06-05 07:12:00,
2013-06-05 03:32:00,68.0,65.0,30.31,ENE,58,5.0,9.0,91,0.00,,,0.01,0.000000,,2013-06-05 07:32:00,
2013-06-05 03:42:00,68.0,65.0,30.31,ENE,58,5.0,9.0,91,0.00,,,0.01,0.000000,,2013-06-05 07:42:00,
2013-06-05 03:52:00,68.0,65.0,30.31,ENE,58,5.0,9.0,91,0.00,,,0.01,0.000000,,2013-06-05 07:52:00,
2013-06-05 04:02:00,68.0,65.0,30.31,ENE,58,5.0,9.0,91,0.00,,,0.01,0.000000,,2013-06-05 08:02:00,
2013-06-05 04:12:00,68.0,65.0,30.31,ENE,58,5.0,9.0,91,0.00,,,0.01,0.000000,,2013-06-05 08:12:00,
2013-06-05 04:32:00,67.0,65.0,30.32,East,80,2.0,7.0,94,0.00,,,0.01,0.000000,,2013-06-05 08:32:00,
2013-06-05 04:42:00,67.0,65.0,30.32,East,80,2.0,7.0,94,0.00,,,0.01,0.000000,,2013-06-05 08:42:00,
2013-06-05 04:52:00,67.0,65.0,30.32,East,80,2.0,7.0,94,0.00,,,0.01,0.000000,,2013-06-05 08:52:00,
2013-06-05 05:02:00,67.0,65.0,30.32,East,80,2.0,7.0,94,0.00,,,0.01,0.000000,,2013-06-05 09:02:00,
2013-06-05 05:12:00,67.0,65.0,30.32,East,80,2.0,7.0,94,0.00,,,0.01,0.000000,,2013-06-05 09:12:00,
2013-06-05 05:33:00,66.0,64.0,30.31,ENE,78,4.0,10.0,93,0.00,,,0.01,0.000000,,2013-06-05 09:33:00,
2013-06-05 05:43:00,66.0,64.0,30.31,ENE,78,4.0,10.0,93,0.00,,,0.01,0.000000,,2013-06-05 09:43:00,
2013-06-05 05:53:00,66.0,64.0,30.31,ENE,78,4.0,10.0,93,0.00,,,0.01,0.000000,,2013-06-05 09:53:00,
2013-06-05 06:03:00,66.0,64.0,30.31,ENE,78,4.0,10.0,93,0.00,,,0.01,0.000000,,2013-06-05 10:03:00,
2013-06-05 06:12:00,66.0,64.0,30.31,ENE,78,4.0,10.0,93,0.00,,,0.01,0.000000,,2013-06-05 10:12:00,
2013-06-05 06:33:00,65.0,63.0,30.33,East,88,3.0,6.0,94,0.00,,,0.01,1.000000,,2013-06-05 10:33:00,
2013-06-05 06:43:00,65.0,63.0,30.33,East,88,3.0,6.0,94,0.00,,,0.01,1.000000,,2013-06-05 10:43:00,
2013-06-05 06:53:00,65.0,63.0,30.33,East,88,3.0,6.0,94,0.00,,,0.01,1.000000,,2013-06-05 10:53:00,
2013-06-05 07:02:00,65.0,63.0,30.33,East,88,3.0,6.0,94,0.00,,,0.01,1.000000,,2013-06-05 11:02:00,
2013-06-05 07:12:00,65.0,63.0,30.33,East,88,3.0,6.0,94,0.00,,,0.01,1.000000,,2013-06-05 11:12:00,
2013-06-05 07:33:00,69.0,66.0,30.33,ENE,76,4.0,8.0,89,0.00,,,0.01,47.000000,,2013-06-05 11:33:00,
2013-06-05 07:42:00,69.0,66.0,30.33,ENE,76,4.0,8.0,89,0.00,,,0.01,47.000000,,2013-06-05 11:42:00,
2013-06-05 07:52:00,69.0,66.0,30.33,ENE,76,4.0,8.0,89,0.00,,,0.01,47.000000,,2013-06-05 11:52:00,
2013-06-05 08:02:00,69.0,66.0,30.33,ENE,76,4.0,8.0,89,0.00,,,0.01,47.000000,,2013-06-05 12:02:00,
2013-06-05 08:12:00,69.0,66.0,30.33,ENE,76,4.0,8.0,89,0.00,,,0.01,47.000000,,2013-06-05 12:12:00,
2013-06-05 08:32:00,73.0,64.0,30.34,East,89,7.0,14.0,73,0.00,,,0.01,189.000000,,2013-06-05 12:32:00,
2013-06-05 08:44:00,73.0,64.0,30.34,East,89,7.0,14.0,73,0.00,,,0.01,189.000000,,2013-06-05 12:44:00,
2013-06-05 08:52:00,73.0,64.0,30.34,East,89,7.0,14.0,73,0.00,,,0.01,189.000000,,2013-06-05 12:52:00,
2013-06-05 09:02:00,73.0,64.0,30.34,East,89,7.0,14.0,73,0.00,,,0.01,189.000000,,2013-06-05 13:02:00,
2013-06-05 09:12:00,73.0,64.0,30.34,East,89,7.0,14.0,73,0.00,,,0.01,189.000000,,2013-06-05 13:12:00,
2013-06-05 09:33:00,76.0,60.0,30.35,East,91,7.0,15.0,58,0.00,,,0.01,380.000000,,2013-06-05 13:33:00,
2013-06-05 09:42:00,76.0,60.0,30.35,East,91,7.0,15.0,58,0.00,,,0.01,380.000000,,2013-06-05 13:42:00,
2013-06-05 09:53:00,76.0,60.0,30.35,East,91,7.0,15.0,58,0.00,,,0.01,380.000000,,2013-06-05 13:53:00,
2013-06-05 10:02:00,76.0,60.0,30.35,East,91,7.0,15.0,58,0.00,,,0.01,380.000000,,2013-06-05 14:02:00,
2013-06-05 10:12:00,76.0,60.0,30.35,East,91,7.0,15.0,58,0.00,,,0.01,380.000000,,2013-06-05 14:12:00,
2013-06-05 10:42:00,79.0,60.0,30.36,East,93,7.0,17.0,52,0.00,,,0.01,494.000000,,2013-06-05 14:42:00,
2013-06-05 10:52:00,79.0,60.0,30.36,East,93,7.0,17.0,52,0.00,,,0.01,494.000000,,2013-06-05 14:52:00,
2013-06-05 11:03:00,79.0,60.0,30.36,East,93,7.0,17.0,52,0.00,,,0.01,494.000000,,2013-06-05 15:03:00,
2013-06-05 11:12:00,79.0,60.0,30.36,East,93,7.0,17.0,52,0.00,,,0.01,494.000000,,2013-06-05 15:12:00,
2013-06-05 11:33:00,81.0,62.0,30.36,East,91,8.0,16.0,53,0.00,,,0.01,696.000000,,2013-06-05 15:33:00,
2013-06-05 11:43:00,81.0,62.0,30.36,East,91,8.0,16.0,53,0.00,,,0.01,696.000000,,2013-06-05 15:43:00,
2013-06-05 11:53:00,81.0,62.0,30.36,East,91,8.0,16.0,53,0.00,,,0.01,696.000000,,2013-06-05 15:53:00,
2013-06-05 12:04:00,81.0,62.0,30.36,East,91,8.0,16.0,53,0.00,,,0.01,696.000000,,2013-06-05 16:04:00,
2013-06-05 12:13:00,81.0,62.0,30.36,East,91,8.0,16.0,53,0.00,,,0.01,696.000000,,2013-06-05 16:13:00,
2013-06-05 12:32:00,82.0,60.0,30.36,East,91,9.0,15.0,47,0.00,,,0.00,760.000000,,2013-06-05 16:32:00,
2013-06-05 12:42:00,82.0,60.0,30.36,East,91,9.0,15.0,47,0.00,,,0.00,760.000000,,2013-06-05 16:42:00,
2013-06-05 12:54:00,82.0,60.0,30.36,East,91,9.0,15.0,47,0.00,,,0.00,760.000000,,2013-06-05 16:54:00,
2013-06-05 13:02:00,82.0,60.0,30.36,East,91,9.0,15.0,47,0.00,,,0.00,760.000000,,2013-06-05 17:02:00,
2013-06-05 13:13:00,82.0,60.0,30.36,East,91,9.0,15.0,47,0.00,,,0.00,760.000000,,2013-06-05 17:13:00,
2013-06-05 13:33:00,84.0,62.0,30.34,ESE,122,7.0,16.0,48,0.00,,,0.00,1060.000000,,2013-06-05 17:33:00,
2013-06-05 13:43:00,84.0,62.0,30.34,ESE,122,7.0,16.0,48,0.00,,,0.00,1060.000000,,2013-06-05 17:43:00,
2013-06-05 13:52:00,84.0,62.0,30.34,ESE,122,7.0,16.0,48,0.00,,,0.00,1060.000000,,2013-06-05 17:52:00,
2013-06-05 14:02:00,84.0,62.0,30.34,ESE,122,7.0,16.0,48,0.00,,,0.00,1060.000000,,2013-06-05 18:02:00,
2013-06-05 14:13:00,84.0,62.0,30.34,ESE,122,7.0,16.0,48,0.00,,,0.00,1060.000000,,2013-06-05 18:13:00,
2013-06-05 14:42:00,85.0,62.0,30.32,ESE,111,10.0,18.0,46,0.00,,,0.00,988.000000,,2013-06-05 18:42:00,
2013-06-05 14:52:00,85.0,62.0,30.32,ESE,111,10.0,18.0,46,0.00,,,0.00,988.000000,,2013-06-05 18:52:00,
2013-06-05 15:03:00,85.0,62.0,30.32,ESE,111,10.0,18.0,46,0.00,,,0.00,988.000000,,2013-06-05 19:03:00,
2013-06-05 15:13:00,85.0,62.0,30.32,ESE,111,10.0,18.0,46,0.00,,,0.00,988.000000,,2013-06-05 19:13:00,
2013-06-05 15:32:00,83.0,61.0,30.31,SE,133,10.0,21.0,47,0.00,,,0.00,1081.000000,,2013-06-05 19:32:00,
2013-06-05 15:42:00,83.0,61.0,30.31,SE,133,10.0,21.0,47,0.00,,,0.00,1081.000000,,2013-06-05 19:42:00,
2013-06-05 15:53:00,83.0,61.0,30.31,SE,133,10.0,21.0,47,0.00,,,0.00,1081.000000,,2013-06-05 19:53:00,
2013-06-05 16:03:00,83.0,61.0,30.31,SE,133,10.0,21.0,47,0.00,,,0.00,1081.000000,,2013-06-05 20:03:00,
2013-06-05 16:12:00,83.0,61.0,30.31,SE,133,10.0,21.0,47,0.00,,,0.00,1081.000000,,2013-06-05 20:12:00,
2013-06-05 16:32:00,84.0,62.0,30.29,ESE,121,9.0,19.0,47,0.00,,,0.00,950.000000,,2013-06-05 20:32:00,
2013-06-05 16:42:00,84.0,62.0,30.29,ESE,121,9.0,19.0,47,0.00,,,0.00,950.000000,,2013-06-05 20:42:00,
2013-06-05 16:52:00,84.0,62.0,30.29,ESE,121,9.0,19.0,47,0.00,,,0.00,950.000000,,2013-06-05 20:52:00,
2013-06-05 17:02:00,84.0,62.0,30.29,ESE,121,9.0,19.0,47,0.00,,,0.00,950.000000,,2013-06-05 21:02:00,
2013-06-05 17:12:00,84.0,62.0,30.29,ESE,121,9.0,19.0,47,0.00,,,0.00,950.000000,,2013-06-05 21:12:00,
2013-06-05 17:33:00,83.0,65.0,30.29,SE,137,8.0,17.0,55,0.00,,,0.00,622.000000,,2013-06-05 21:33:00,
2013-06-05 17:43:00,83.0,65.0,30.29,SE,137,8.0,17.0,55,0.00,,,0.00,622.000000,,2013-06-05 21:43:00,
2013-06-05 17:53:00,83.0,65.0,30.29,SE,137,8.0,17.0,55,0.00,,,0.00,622.000000,,2013-06-05 21:53:00,
2013-06-05 18:03:00,83.0,65.0,30.29,SE,137,8.0,17.0,55,0.00,,,0.00,622.000000,,2013-06-05 22:03:00,
2013-06-05 18:13:00,83.0,65.0,30.29,SE,137,8.0,17.0,55,0.00,,,0.00,622.000000,,2013-06-05 22:13:00,
2013-06-05 18:33:00,79.0,64.0,30.28,SE,139,9.0,18.0,60,0.00,,,0.00,468.000000,,2013-06-05 22:33:00,
2013-06-05 18:43:00,79.0,64.0,30.28,SE,139,9.0,18.0,60,0.00,,,0.00,468.000000,,2013-06-05 22:43:00,
2013-06-05 18:53:00,79.0,64.0,30.28,SE,139,9.0,18.0,60,0.00,,,0.00,468.000000,,2013-06-05 22:53:00,
2013-06-05 19:02:00,79.0,64.0,30.28,SE,139,9.0,18.0,60,0.00,,,0.00,468.000000,,2013-06-05 23:02:00,
2013-06-05 19:12:00,79.0,64.0,30.28,SE,139,9.0,18.0,60,0.00,,,0.00,468.000000,,2013-06-05 23:12:00,
2013-06-05 19:32:00,77.0,66.0,30.28,SE,132,6.0,14.0,69,0.00,,,0.00,233.000000,,2013-06-05 23:32:00,
2013-06-05 19:42:00,77.0,66.0,30.28,SE,132,6.0,14.0,69,0.00,,,0.00,233.000000,,2013-06-05 23:42:00,
2013-06-05 19:53:00,77.0,66.0,30.28,SE,132,6.0,14.0,69,0.00,,,0.00,233.000000,,2013-06-05 23:53:00,
2013-06-05 20:02:00,77.0,66.0,30.28,SE,132,6.0,14.0,69,0.00,,,0.00,233.000000,,2013-06-06 00:02:00,
2013-06-05 20:12:00,77.0,66.0,30.28,SE,132,6.0,14.0,69,0.00,,,0.00,233.000000,,2013-06-06 00:12:00,
2013-06-05 20:43:00,72.0,65.0,30.28,ESE,113,7.0,15.0,79,0.00,,,0.00,67.000000,,2013-06-06 00:43:00,
2013-06-05 20:52:00,72.0,65.0,30.28,ESE,113,7.0,15.0,79,0.00,,,0.00,67.000000,,2013-06-06 00:52:00,
2013-06-05 21:02:00,72.0,65.0,30.28,ESE,113,7.0,15.0,79,0.00,,,0.00,67.000000,,2013-06-06 01:02:00,
2013-06-05 21:12:00,72.0,65.0,30.28,ESE,113,7.0,15.0,79,0.00,,,0.00,67.000000,,2013-06-06 01:12:00,
2013-06-05 21:32:00,70.0,65.0,30.30,ESE,106,4.0,10.0,85,0.00,,,0.00,4.000000,,2013-06-06 01:32:00,
2013-06-05 21:42:00,70.0,65.0,30.30,ESE,106,4.0,10.0,85,0.00,,,0.00,4.000000,,2013-06-06 01:42:00,
2013-06-05 21:53:00,70.0,65.0,30.30,ESE,106,4.0,10.0,85,0.00,,,0.00,4.000000,,2013-06-06 01:53:00,
2013-06-05 22:02:00,70.0,65.0,30.30,ESE,106,4.0,10.0,85,0.00,,,0.00,4.000000,,2013-06-06 02:02:00,
2013-06-05 22:12:00,70.0,65.0,30.30,ESE,106,4.0,10.0,85,0.00,,,0.00,4.000000,,2013-06-06 02:12:00,
2013-06-05 22:32:00,69.0,65.0,30.30,East,97,5.0,9.0,87,0.00,,,0.00,0.000000,,2013-06-06 02:32:00,
2013-06-05 22:42:00,69.0,65.0,30.30,East,97,5.0,9.0,87,0.00,,,0.00,0.000000,,2013-06-06 02:42:00,
2013-06-05 22:52:00,69.0,65.0,30.30,East,97,5.0,9.0,87,0.00,,,0.00,0.000000,,2013-06-06 02:52:00,
2013-06-05 23:02:00,69.0,65.0,30.30,East,97,5.0,9.0,87,0.00,,,0.00,0.000000,,2013-06-06 03:02:00,
2013-06-05 23:12:00,69.0,65.0,30.30,East,97,5.0,9.0,87,0.00,,,0.00,0.000000,,2013-06-06 03:12:00,
2013-06-05 23:33:00,70.0,66.0,30.30,East,101,5.0,9.0,87,0.00,,,0.00,0.000000,,2013-06-06 03:33:00,
2013-06-05 23:43:00,70.0,66.0,30.30,East,101,5.0,9.0,87,0.00,,,0.00,0.000000,,2013-06-06 03:43:00,
2013-06-05 23:53:00,70.0,66.0,30.30,East,101,5.0,9.0,87,0.00,,,0.00,0.000000,,2013-06-06 03:53:00,